Accueil
METAR-TAF:

METAR-TAF

Aéroports :

Aéroport de Bournemouth

Bornemouth, Angleterre

latitude: 50-47N, longitude: 001-50W, altitude: 11 m

Observation

Le bulletin a été fait il y a 1 heure et 15 minutes, à 05:50 UTC
Vent 9 kt de nord
Température 5°C
Humidité 81%
Pression 1044 hPa
Visibilité 10 km ou plus
pas de nuages en-dessous de 1500 mètres et pas de cumulonimbus.

METAR: EGHH 050550Z 01009KT CAVOK 05/02 Q1044

Heure: 07:05 (07:05 UTC)

Prévision

Le bulletin a été fait il y a 14 heures et 6 minutes, à 16:59 UTC
Prévision valable du 04 à 18 UTC au 04 à 22 UTC
Vent 5 kt de ouest
Visibilité 10 km ou plus
Nuages fragmentés à une hauteur de 3500 ft
Probabilité 30% :
Temporairement
du 04 à 18 UTC au 04 à 22 UTC
Visibilité: 6000 m
Nuages fragmentés à une hauteur de 1000 ft
pluie faible, bruine

TAF: EGHH 041659Z 0418/0422 27005KT 9999 BKN035 PROB30 TEMPO 0418/0422 6000 -RADZ BKN010

Observations et prévisions météorologiques de plus de 4000 aéroports (messages METAR et TAF).

Les stations disponibles sont représentées par des disques jaunes et rouges sur la carte.

Passer la souris dessus pour voir le nom de la station.

Cliquer dessus pour voir les observations et prévisions météorologiques.

Pour changer de carte: cliquez sur les boutons verts avec une croix noire pour zoomer, sur le bouton vert avec un tiret pour effectuer un zoom arrière, ou sur les flèches vertes pour les cartes adjacentes.


METAR-TAF: